createdAt,value
2023-02-15T00:00:12.430Z,0.61
2023-02-15T00:02:41.476Z,0.52
2023-02-15T00:05:10.725Z,0.49
2023-02-15T00:07:40.306Z,0.49
2023-02-15T00:10:09.550Z,0.44
2023-02-15T00:12:38.739Z,0.41
2023-02-15T00:15:09.065Z,0.41
2023-02-15T00:17:37.686Z,0.41
2023-02-15T00:20:07.755Z,0.40
2023-02-15T00:22:35.860Z,0.40
2023-02-15T00:25:03.839Z,0.44
2023-02-15T00:27:35.619Z,0.46
2023-02-15T00:30:03.746Z,0.45
2023-02-15T00:32:35.632Z,0.42
2023-02-15T00:35:03.700Z,0.37
2023-02-15T00:37:32.756Z,0.33
2023-02-15T00:40:00.771Z,0.31
2023-02-15T00:42:29.030Z,0.34
2023-02-15T00:44:57.269Z,0.29
2023-02-15T00:47:26.290Z,0.29
2023-02-15T00:49:58.373Z,0.29
2023-02-15T00:52:26.364Z,0.33
2023-02-15T00:54:54.303Z,0.37
2023-02-15T00:57:22.580Z,0.33
2023-02-15T00:59:50.666Z,0.29
2023-02-15T01:02:18.755Z,0.27
2023-02-15T01:04:47.191Z,0.18
2023-02-15T01:07:16.800Z,0.11
2023-02-15T01:09:45.076Z,0.04
2023-02-15T01:12:13.372Z,0.04
2023-02-15T01:14:41.486Z,0.00
2023-02-15T01:17:11.170Z,-0.03
2023-02-15T01:19:39.131Z,-0.03
2023-02-15T01:22:07.199Z,0.03
2023-02-15T01:24:36.788Z,0.01
2023-02-15T01:27:05.281Z,-0.03
2023-02-15T01:29:33.975Z,-0.07
2023-02-15T01:32:03.868Z,-0.17
2023-02-15T01:34:32.099Z,-0.24
2023-02-15T01:37:00.439Z,-0.34
2023-02-15T01:39:28.977Z,-0.40
2023-02-15T01:41:58.415Z,-0.45
2023-02-15T01:44:48.143Z,-0.46
2023-02-15T01:47:19.252Z,-0.40
2023-02-15T01:49:48.994Z,-0.35
2023-02-15T01:52:19.789Z,-0.35
2023-02-15T01:54:48.860Z,-0.41
2023-02-15T01:57:20.540Z,-0.44
2023-02-15T01:59:52.373Z,-0.44
2023-02-15T02:02:21.830Z,-0.46
2023-02-15T02:04:51.625Z,-0.46
2023-02-15T02:07:22.234Z,-0.50
2023-02-15T02:09:51.258Z,-0.50
2023-02-15T02:12:22.247Z,-0.51
2023-02-15T02:14:51.015Z,-0.42
2023-02-15T02:17:24.381Z,-0.31
2023-02-15T02:20:09.561Z,-0.27
2023-02-15T02:23:15.077Z,-0.23
2023-02-15T02:25:59.285Z,-0.21
2023-02-15T02:28:54.289Z,-0.21
2023-02-15T02:31:38.679Z,-0.24
2023-02-15T02:34:15.670Z,-0.24
2023-02-15T02:36:48.508Z,-0.28
2023-02-15T02:39:24.654Z,-0.27
2023-02-15T02:41:58.937Z,-0.30
2023-02-15T02:44:30.795Z,-0.30
2023-02-15T02:47:03.040Z,-0.34
2023-02-15T02:49:34.513Z,-0.33
2023-02-15T02:52:03.793Z,-0.38
2023-02-15T02:54:33.340Z,-0.45
2023-02-15T02:57:05.356Z,-0.48
2023-02-15T02:59:36.537Z,-0.54
2023-02-15T03:02:08.272Z,-0.52
2023-02-15T03:04:40.445Z,-0.58
2023-02-15T03:07:09.325Z,-0.52
2023-02-15T03:09:47.502Z,-0.51
2023-02-15T03:12:18.942Z,-0.52
2023-02-15T03:14:50.788Z,-0.55
2023-02-15T03:17:19.710Z,-0.60
2023-02-15T03:19:51.635Z,-0.64
2023-02-15T03:22:23.878Z,-0.61
2023-02-15T03:24:57.716Z,-0.61
2023-02-15T03:27:29.163Z,-0.64
2023-02-15T03:30:00.649Z,-0.66
2023-02-15T03:32:31.061Z,-0.68
2023-02-15T03:35:01.358Z,-0.68
2023-02-15T03:37:33.770Z,-0.71
2023-02-15T03:40:26.886Z,-0.73
2023-02-15T03:43:01.117Z,-0.76
2023-02-15T03:45:34.152Z,-0.79
2023-02-15T03:48:05.722Z,-0.83
2023-02-15T03:50:56.522Z,-0.81
2023-02-15T03:53:27.763Z,-0.78
2023-02-15T03:55:57.011Z,-0.76
2023-02-15T03:58:44.228Z,-0.75
2023-02-15T04:01:34.110Z,-0.79
2023-02-15T04:04:05.976Z,-0.81
2023-02-15T04:06:36.358Z,-0.75
2023-02-15T04:09:22.730Z,-0.75
2023-02-15T04:11:50.708Z,-0.82
2023-02-15T04:14:36.344Z,-0.82
2023-02-15T04:17:07.567Z,-0.76
2023-02-15T04:19:53.695Z,-0.72
2023-02-15T04:22:41.400Z,-0.66
2023-02-15T04:25:13.996Z,-0.62
2023-02-15T04:27:42.991Z,-0.64
2023-02-15T04:30:12.568Z,-0.65
2023-02-15T04:32:41.007Z,-0.64
2023-02-15T04:35:10.294Z,-0.65
2023-02-15T04:37:40.714Z,-0.68
2023-02-15T04:40:12.742Z,-0.66
2023-02-15T04:42:41.019Z,-0.65
2023-02-15T04:45:10.369Z,-0.61
2023-02-15T04:47:41.246Z,-0.60
2023-02-15T04:50:09.834Z,-0.57
2023-02-15T04:52:41.134Z,-0.60
2023-02-15T04:55:10.056Z,-0.61
2023-02-15T04:57:38.217Z,-0.64
2023-02-15T05:00:07.369Z,-0.62
2023-02-15T05:02:35.320Z,-0.66
2023-02-15T05:05:03.627Z,-0.64
2023-02-15T05:07:31.565Z,-0.66
2023-02-15T05:10:01.186Z,-0.68
2023-02-15T05:12:30.111Z,-0.71
2023-02-15T05:14:58.898Z,-0.72
2023-02-15T05:17:27.202Z,-0.76
2023-02-15T05:19:56.942Z,-0.76
2023-02-15T05:22:25.212Z,-0.82
2023-02-15T05:25:11.051Z,-0.82
2023-02-15T05:27:58.298Z,-0.82
2023-02-15T05:30:26.972Z,-0.91
2023-02-15T05:32:55.886Z,-0.95
2023-02-15T05:35:25.484Z,-0.99
2023-02-15T05:37:54.148Z,-1.03
2023-02-15T05:40:22.614Z,-1.07
2023-02-15T05:42:52.193Z,-1.10
2023-02-15T05:45:20.239Z,-1.09
2023-02-15T05:47:48.251Z,-1.10
2023-02-15T05:50:16.578Z,-1.09
2023-02-15T05:52:44.693Z,-1.09
2023-02-15T05:55:13.353Z,-1.10
2023-02-15T05:57:41.720Z,-1.07
2023-02-15T06:00:14.818Z,-1.03
2023-02-15T06:02:47.209Z,-1.07
2023-02-15T06:05:15.221Z,-0.73
2023-02-15T06:07:50.162Z,-0.57
2023-02-15T06:10:21.997Z,-0.40
2023-02-15T06:12:50.388Z,-0.41
2023-02-15T06:15:20.853Z,-0.14
2023-02-15T06:17:48.922Z,-0.06
2023-02-15T06:20:17.096Z,-0.15
2023-02-15T06:22:45.489Z,-0.35
2023-02-15T06:25:14.595Z,-0.38
2023-02-15T06:27:43.496Z,-0.28
2023-02-15T06:30:13.220Z,-0.17
2023-02-15T06:32:42.834Z,-0.02
2023-02-15T06:35:10.991Z,-0.04
2023-02-15T06:37:39.694Z,0.00
2023-02-15T06:40:09.403Z,-0.06
2023-02-15T06:42:37.654Z,-0.11
2023-02-15T06:45:08.230Z,-0.35
2023-02-15T06:47:36.811Z,-0.54
2023-02-15T06:50:08.519Z,-0.65
2023-02-15T06:52:36.795Z,-0.75
2023-02-15T06:55:06.399Z,-0.86
2023-02-15T06:57:34.983Z,-0.89
2023-02-15T07:00:06.063Z,-0.93
2023-02-15T07:02:34.561Z,-0.97
2023-02-15T07:05:03.809Z,-1.06
2023-02-15T07:07:33.294Z,-1.07
2023-02-15T07:10:01.322Z,-1.02
2023-02-15T07:12:43.824Z,-1.00
2023-02-15T07:15:13.326Z,-1.00
2023-02-15T07:17:42.657Z,-0.97
2023-02-15T07:20:13.303Z,-1.00
2023-02-15T07:22:43.909Z,-1.03
2023-02-15T07:25:13.680Z,-1.00
2023-02-15T07:27:43.002Z,-1.00
2023-02-15T07:30:13.464Z,-1.02
2023-02-15T07:32:57.308Z,-1.02
2023-02-15T07:35:26.468Z,-1.00
2023-02-15T07:37:56.923Z,-0.93
2023-02-15T07:40:25.215Z,-0.88
2023-02-15T07:42:57.291Z,-0.86
2023-02-15T07:45:25.178Z,-0.83
2023-02-15T07:47:53.247Z,-0.82
2023-02-15T07:50:21.386Z,-0.82
2023-02-15T07:52:49.565Z,-0.76
2023-02-15T07:55:19.596Z,-0.79
2023-02-15T07:57:49.054Z,-0.82
2023-02-15T08:00:19.478Z,-0.79
2023-02-15T08:03:10.782Z,-0.75
2023-02-15T08:05:40.494Z,-0.76
2023-02-15T08:08:08.750Z,-0.73
2023-02-15T08:10:56.130Z,-0.69
2023-02-15T08:13:28.733Z,-0.61
2023-02-15T08:15:57.166Z,-0.55
2023-02-15T08:18:26.242Z,-0.52
2023-02-15T08:20:54.351Z,-0.42
2023-02-15T08:23:22.481Z,-0.37
2023-02-15T08:25:51.866Z,-0.37
2023-02-15T08:28:19.922Z,-0.30
2023-02-15T08:30:48.374Z,-0.23
2023-02-15T08:33:18.890Z,-0.15
2023-02-15T08:35:46.990Z,-0.10
2023-02-15T08:38:16.050Z,-0.06
2023-02-15T08:40:44.076Z,-0.03
2023-02-15T08:43:13.447Z,0.03
2023-02-15T08:45:41.560Z,0.04
2023-02-15T08:48:09.923Z,0.15
2023-02-15T08:50:38.202Z,0.19
2023-02-15T08:53:06.341Z,0.25
2023-02-15T08:55:37.880Z,0.33
2023-02-15T08:58:06.163Z,0.41
2023-02-15T09:00:35.973Z,0.46
2023-02-15T09:03:05.516Z,0.51
2023-02-15T09:05:33.597Z,0.58
2023-02-15T09:08:02.999Z,0.66
2023-02-15T09:10:31.538Z,0.75
2023-02-15T09:13:00.389Z,0.76
2023-02-15T09:15:28.855Z,0.83
2023-02-15T09:18:00.457Z,0.87
2023-02-15T09:20:29.169Z,1.00
2023-02-15T09:22:59.893Z,1.12
2023-02-15T09:25:28.689Z,1.22
2023-02-15T09:27:57.078Z,1.33
2023-02-15T09:30:25.453Z,1.43
2023-02-15T09:32:53.991Z,1.50
2023-02-15T09:35:24.862Z,1.61
2023-02-15T09:37:53.145Z,1.72
2023-02-15T09:40:22.212Z,1.86
2023-02-15T09:43:01.123Z,1.95
2023-02-15T09:45:37.266Z,2.06
2023-02-15T09:48:28.599Z,2.09
2023-02-15T09:51:08.808Z,2.02
2023-02-15T09:53:51.691Z,2.03
2023-02-15T09:56:23.021Z,1.95
2023-02-15T09:58:56.321Z,1.93
2023-02-15T10:01:31.320Z,2.02
2023-02-15T10:04:10.735Z,2.05
2023-02-15T10:06:45.370Z,2.03
2023-02-15T10:09:25.842Z,2.10
2023-02-15T10:12:04.438Z,2.19
2023-02-15T10:14:50.176Z,2.14
2023-02-15T10:17:27.866Z,2.17
2023-02-15T10:20:06.730Z,2.30
2023-02-15T10:22:46.904Z,2.40
2023-02-15T10:25:30.724Z,2.51
2023-02-15T10:28:01.412Z,2.62
2023-02-15T10:30:36.083Z,2.68
2023-02-15T10:33:05.833Z,2.75
2023-02-15T10:35:38.985Z,2.84
2023-02-15T10:38:24.085Z,3.01
2023-02-15T10:41:00.978Z,3.08
2023-02-15T10:43:47.990Z,3.23
2023-02-15T10:46:26.918Z,3.36
2023-02-15T10:49:11.344Z,3.70
2023-02-15T10:51:45.025Z,3.87
2023-02-15T10:54:22.783Z,4.01
2023-02-15T10:56:57.727Z,4.19
2023-02-15T10:59:36.847Z,4.30
2023-02-15T11:02:16.320Z,4.50
2023-02-15T11:04:53.517Z,4.71
2023-02-15T11:07:25.065Z,4.94
2023-02-15T11:10:01.546Z,5.01
2023-02-15T11:12:31.589Z,5.03
2023-02-15T11:15:00.779Z,5.14
2023-02-15T11:17:36.709Z,5.36
2023-02-15T11:20:11.728Z,5.60
2023-02-15T11:22:41.781Z,5.83
2023-02-15T11:25:21.747Z,6.13
2023-02-15T11:27:50.775Z,6.44
2023-02-15T11:30:22.599Z,6.61
2023-02-15T11:32:55.743Z,6.73
2023-02-15T11:35:32.481Z,6.76
2023-02-15T11:38:05.760Z,6.72
2023-02-15T11:40:36.394Z,6.82
2023-02-15T11:43:07.650Z,6.90
2023-02-15T11:45:36.867Z,7.03
2023-02-15T11:48:12.017Z,7.10
2023-02-15T11:50:40.584Z,7.00
2023-02-15T11:53:13.692Z,6.94
2023-02-15T11:55:46.485Z,7.11
2023-02-15T11:58:31.556Z,7.07
2023-02-15T12:01:04.681Z,6.80
2023-02-15T12:03:46.575Z,6.68
2023-02-15T12:06:20.165Z,6.52
2023-02-15T12:08:54.182Z,6.79
2023-02-15T12:11:29.748Z,7.01
2023-02-15T12:14:00.251Z,7.24
2023-02-15T12:16:31.025Z,7.32
2023-02-15T12:19:00.659Z,7.24
2023-02-15T12:21:31.334Z,7.35
2023-02-15T12:24:05.635Z,7.30
2023-02-15T12:26:37.454Z,7.52
2023-02-15T12:29:14.421Z,7.66
2023-02-15T12:31:46.482Z,7.78
2023-02-15T12:34:21.588Z,7.85
2023-02-15T12:36:58.018Z,7.92
2023-02-15T12:39:28.650Z,8.13
2023-02-15T12:42:07.537Z,8.16
2023-02-15T12:44:38.106Z,8.37
2023-02-15T12:47:09.307Z,8.48
2023-02-15T12:49:47.648Z,8.54
2023-02-15T12:52:27.145Z,8.55
2023-02-15T12:54:55.358Z,8.47
2023-02-15T12:57:27.868Z,8.44
2023-02-15T13:00:01.932Z,8.44
2023-02-15T13:02:33.672Z,8.41
2023-02-15T13:05:17.076Z,8.40
2023-02-15T13:07:47.890Z,8.44
2023-02-15T13:10:29.719Z,8.51
2023-02-15T13:13:00.107Z,8.58
2023-02-15T13:15:36.746Z,8.68
2023-02-15T13:18:07.546Z,8.72
2023-02-15T13:20:37.466Z,8.73
2023-02-15T13:23:11.142Z,8.83
2023-02-15T13:25:45.201Z,8.86
2023-02-15T13:28:16.774Z,8.93
2023-02-15T13:30:47.072Z,8.96
2023-02-15T13:33:20.125Z,8.93
2023-02-15T13:35:52.927Z,8.98
2023-02-15T13:38:41.890Z,9.08
2023-02-15T13:41:14.718Z,9.23
2023-02-15T13:43:53.760Z,9.24
2023-02-15T13:46:33.418Z,9.26
2023-02-15T13:49:11.983Z,9.30
2023-02-15T13:51:45.027Z,9.36
2023-02-15T13:54:41.196Z,9.47
2023-02-15T13:57:24.109Z,9.50
2023-02-15T14:00:05.639Z,9.57
2023-02-15T14:02:45.115Z,9.57
2023-02-15T14:05:28.178Z,9.58
2023-02-15T14:08:02.438Z,9.61
2023-02-15T14:10:51.575Z,9.62
2023-02-15T14:13:47.732Z,9.67
2023-02-15T14:16:23.564Z,9.74
2023-02-15T14:18:57.683Z,9.77
2023-02-15T14:21:31.295Z,9.74
2023-02-15T14:24:11.641Z,9.74
2023-02-15T14:26:44.318Z,9.68
2023-02-15T14:29:22.766Z,9.68
2023-02-15T14:31:54.964Z,9.60
2023-02-15T14:34:25.968Z,9.57
2023-02-15T14:36:54.642Z,9.54
2023-02-15T14:39:49.359Z,9.51
2023-02-15T14:42:22.793Z,9.50
2023-02-15T14:44:56.577Z,9.40
2023-02-15T14:47:31.305Z,9.36
2023-02-15T14:49:59.589Z,9.31
2023-02-15T14:52:28.729Z,9.34
2023-02-15T14:55:17.179Z,9.31
2023-02-15T14:57:57.990Z,9.30
2023-02-15T15:00:40.078Z,9.29
2023-02-15T15:03:23.620Z,9.29
2023-02-15T15:05:53.920Z,9.27
2023-02-15T15:08:30.093Z,9.30
2023-02-15T15:10:58.314Z,9.27
2023-02-15T15:13:43.330Z,9.24
2023-02-15T15:16:31.960Z,9.23
2023-02-15T15:19:01.908Z,9.19
2023-02-15T15:21:58.523Z,9.12
2023-02-15T15:24:52.066Z,9.10
2023-02-15T15:27:58.234Z,9.05
2023-02-15T15:30:52.231Z,9.02
2023-02-15T15:34:02.071Z,8.98
2023-02-15T15:36:56.636Z,8.98
2023-02-15T15:40:02.639Z,8.95
2023-02-15T15:42:35.258Z,8.90
2023-02-15T15:45:33.376Z,8.88
2023-02-15T15:48:12.234Z,8.81
2023-02-15T15:50:44.201Z,8.75
2023-02-15T15:53:22.699Z,8.71
2023-02-15T15:55:55.962Z,8.64
2023-02-15T15:58:27.015Z,8.58
2023-02-15T16:00:58.312Z,8.51
2023-02-15T16:03:27.977Z,8.38
2023-02-15T16:05:56.782Z,8.20
2023-02-15T16:08:34.566Z,8.02
2023-02-15T16:11:10.459Z,7.90
2023-02-15T16:13:38.984Z,7.78
2023-02-15T16:16:08.273Z,7.65
2023-02-15T16:18:40.021Z,7.55
2023-02-15T16:21:08.138Z,7.42
2023-02-15T16:23:57.919Z,7.32
2023-02-15T16:26:40.090Z,7.18
2023-02-15T16:29:16.336Z,7.08
2023-02-15T16:31:44.715Z,6.96
2023-02-15T16:34:19.514Z,6.87
2023-02-15T16:36:47.914Z,6.68
2023-02-15T16:39:22.044Z,6.56
2023-02-15T16:41:57.029Z,6.39
2023-02-15T16:44:25.129Z,6.26
2023-02-15T16:46:55.311Z,6.07
2023-02-15T16:49:25.803Z,5.93
2023-02-15T16:51:58.009Z,5.74
2023-02-15T16:54:28.100Z,5.62
2023-02-15T16:56:56.458Z,5.49
2023-02-15T16:59:37.658Z,5.32
2023-02-15T17:02:09.365Z,5.19
2023-02-15T17:04:39.584Z,5.07
2023-02-15T17:07:16.816Z,4.91
2023-02-15T17:09:53.399Z,4.84
2023-02-15T17:12:46.729Z,4.64
2023-02-15T17:15:28.415Z,4.50
2023-02-15T17:17:58.712Z,4.38
2023-02-15T17:20:27.036Z,4.23
2023-02-15T17:22:55.190Z,4.12
2023-02-15T17:25:28.867Z,3.99
2023-02-15T17:27:58.896Z,3.84
2023-02-15T17:30:31.720Z,3.74
2023-02-15T17:33:01.811Z,3.67
2023-02-15T17:35:30.739Z,3.63
2023-02-15T17:38:07.845Z,3.56
2023-02-15T17:40:39.624Z,3.44
2023-02-15T17:43:07.730Z,3.34
2023-02-15T17:45:39.472Z,3.31
2023-02-15T17:48:16.604Z,3.20
2023-02-15T17:50:44.693Z,3.12
2023-02-15T17:53:13.513Z,3.03
2023-02-15T17:55:43.807Z,2.96
2023-02-15T17:58:12.973Z,2.93
2023-02-15T18:01:01.283Z,2.92
2023-02-15T18:03:56.040Z,2.88
2023-02-15T18:06:41.705Z,2.85
2023-02-15T18:09:30.601Z,2.87
2023-02-15T18:12:00.141Z,2.85
2023-02-15T18:14:29.120Z,2.72
2023-02-15T18:16:57.915Z,2.68
2023-02-15T18:19:27.583Z,2.57
2023-02-15T18:21:57.906Z,2.55
2023-02-15T18:24:28.202Z,2.60
2023-02-15T18:26:57.516Z,2.57
2023-02-15T18:29:27.069Z,2.50
2023-02-15T18:31:58.525Z,2.41
2023-02-15T18:34:28.580Z,2.40
2023-02-15T18:36:57.246Z,2.43
2023-02-15T18:39:28.187Z,2.40
2023-02-15T18:41:56.325Z,2.40
2023-02-15T18:44:24.961Z,2.34
2023-02-15T18:46:55.727Z,2.37
2023-02-15T18:49:23.902Z,2.31
2023-02-15T18:51:53.412Z,2.31
2023-02-15T18:54:23.815Z,2.27
2023-02-15T18:56:55.426Z,2.24
2023-02-15T18:59:28.486Z,2.24
2023-02-15T19:01:59.066Z,2.16
2023-02-15T19:04:27.136Z,2.12
2023-02-15T19:06:56.334Z,2.10
2023-02-15T19:09:25.508Z,2.10
2023-02-15T19:11:55.365Z,2.06
2023-02-15T19:14:28.953Z,2.05
2023-02-15T19:17:01.446Z,1.98
2023-02-15T19:19:30.172Z,1.83
2023-02-15T19:21:58.345Z,1.72
2023-02-15T19:24:32.104Z,1.72
2023-02-15T19:27:00.706Z,1.65
2023-02-15T19:29:30.933Z,1.71
2023-02-15T19:32:01.794Z,1.69
2023-02-15T19:34:29.861Z,1.71
2023-02-15T19:36:58.175Z,1.78
2023-02-15T19:39:28.565Z,1.76
2023-02-15T19:41:56.885Z,1.64
2023-02-15T19:44:25.029Z,1.61
2023-02-15T19:46:53.186Z,1.58
2023-02-15T19:49:22.597Z,1.55
2023-02-15T19:51:50.998Z,1.55
2023-02-15T19:54:28.444Z,1.50
2023-02-15T19:56:56.938Z,1.43
2023-02-15T19:59:27.027Z,1.44
2023-02-15T20:01:57.697Z,1.38
2023-02-15T20:04:27.757Z,1.35
2023-02-15T20:06:57.271Z,1.24
2023-02-15T20:09:27.540Z,1.10
2023-02-15T20:11:56.496Z,1.06
2023-02-15T20:14:25.043Z,1.07
2023-02-15T20:16:53.330Z,1.06
2023-02-15T20:19:21.571Z,0.99
2023-02-15T20:21:54.861Z,0.97
2023-02-15T20:24:25.036Z,0.93
2023-02-15T20:26:53.215Z,0.97
2023-02-15T20:29:22.407Z,0.97
2023-02-15T20:31:52.812Z,0.97
2023-02-15T20:34:22.390Z,1.01
2023-02-15T20:36:52.660Z,1.00
2023-02-15T20:39:22.218Z,0.97
2023-02-15T20:41:50.726Z,0.89
2023-02-15T20:44:24.437Z,0.82
2023-02-15T20:47:02.775Z,0.85
2023-02-15T20:49:32.421Z,0.83
2023-02-15T20:52:04.899Z,0.85
2023-02-15T20:54:35.238Z,0.82
2023-02-15T20:57:07.596Z,0.77
2023-02-15T20:59:35.893Z,0.69
2023-02-15T21:02:17.321Z,0.66
2023-02-15T21:04:46.627Z,0.73
2023-02-15T21:07:20.797Z,0.76
2023-02-15T21:09:50.678Z,0.77
2023-02-15T21:12:23.909Z,0.82
2023-02-15T21:14:52.211Z,0.89
2023-02-15T21:17:21.165Z,0.92
2023-02-15T21:19:49.867Z,0.92
2023-02-15T21:22:22.112Z,0.92
2023-02-15T21:24:51.592Z,0.83
2023-02-15T21:27:19.836Z,0.79
2023-02-15T21:29:47.959Z,0.75
2023-02-15T21:32:21.665Z,0.69
2023-02-15T21:34:50.067Z,0.61
2023-02-15T21:37:29.368Z,0.55
2023-02-15T21:40:01.157Z,0.54
2023-02-15T21:42:47.561Z,0.42
2023-02-15T21:45:34.333Z,0.37
2023-02-15T21:48:02.673Z,0.33
2023-02-15T21:50:48.315Z,0.21
2023-02-15T21:53:22.848Z,0.11
2023-02-15T21:55:55.449Z,0.01
2023-02-15T21:58:26.211Z,-0.03
2023-02-15T22:00:55.887Z,-0.11
2023-02-15T22:03:25.143Z,-0.18
2023-02-15T22:05:55.463Z,-0.24
2023-02-15T22:08:24.803Z,-0.33
2023-02-15T22:10:57.544Z,-0.40
2023-02-15T22:13:29.626Z,-0.45
2023-02-15T22:15:58.279Z,-0.51
2023-02-15T22:18:33.424Z,-0.58
2023-02-15T22:21:03.628Z,-0.62
2023-02-15T22:23:33.768Z,-0.65
2023-02-15T22:26:05.144Z,-0.65
2023-02-15T22:28:37.333Z,-0.71
2023-02-15T22:31:07.451Z,-0.73
2023-02-15T22:33:36.820Z,-0.75
2023-02-15T22:36:19.071Z,-0.78
2023-02-15T22:38:48.852Z,-0.79
2023-02-15T22:41:18.161Z,-0.78
2023-02-15T22:43:50.723Z,-0.75
2023-02-15T22:46:21.026Z,-0.76
2023-02-15T22:48:50.495Z,-0.81
2023-02-15T22:51:21.282Z,-0.86
2023-02-15T22:53:52.200Z,-0.95
2023-02-15T22:56:26.555Z,-0.97
2023-02-15T22:58:58.609Z,-1.06
2023-02-15T23:01:31.678Z,-1.10
2023-02-15T23:04:03.253Z,-1.17
2023-02-15T23:06:31.659Z,-1.23
2023-02-15T23:09:03.911Z,-1.26
2023-02-15T23:11:32.163Z,-1.29
2023-02-15T23:14:03.081Z,-1.33
2023-02-15T23:16:34.781Z,-1.36
2023-02-15T23:19:03.133Z,-1.34
2023-02-15T23:21:34.662Z,-1.40
2023-02-15T23:24:15.085Z,-1.41
2023-02-15T23:26:43.116Z,-1.41
2023-02-15T23:29:15.318Z,-1.48
2023-02-15T23:31:46.356Z,-1.51
2023-02-15T23:34:19.451Z,-1.47
2023-02-15T23:36:51.881Z,-1.41
2023-02-15T23:39:45.688Z,-1.43
2023-02-15T23:42:16.599Z,-1.41
2023-02-15T23:44:45.413Z,-1.36
2023-02-15T23:47:21.238Z,-1.43
2023-02-15T23:49:49.290Z,-1.44
2023-02-15T23:52:17.305Z,-1.44
2023-02-15T23:54:46.876Z,-1.50
2023-02-15T23:57:14.974Z,-1.51
2023-02-15T23:59:45.201Z,-1.51
